Time;durP1;ratioP1;P1;durP2;ratioP2;P2;SDS_P1;SDS_P2;PMS_P1;PMS_P2;Temp;Humidity;BMP_temperature;BMP_pressure;BME280_temperature;BME280_humidity;BME280_pressure;Samples;Min_cycle;Max_cycle;Signal;HPM_P1;HPM_P2
2022/12/03 00:02:07;;;;;;;35.85;15.65;;;;;;;;;;5060238;28;20513;-69
2022/12/03 00:04:34;;;;;;;34.17;15.38;;;;;;;;;;5053970;28;22079;-69
2022/12/03 00:07:00;;;;;;;32.38;14.50;;;;;;;;;;5059070;28;20400;-69
2022/12/03 00:09:26;;;;;;;27.77;14.50;;;;;;;;;;5067377;28;20150;-69
2022/12/03 00:11:52;;;;;;;27.05;13.25;;;;;;;;;;5066180;28;20431;-68
2022/12/03 00:14:18;;;;;;;26.10;12.90;;;;;;;;;;5071379;28;20044;-69
2022/12/03 00:16:45;;;;;;;27.65;14.15;;;;;;;;;;5071267;28;20074;-69
2022/12/03 00:19:11;;;;;;;26.80;12.20;;;;;;;;;;5046024;28;20060;-69
2022/12/03 00:21:37;;;;;;;21.95;12.00;;;;;;;;;;5068760;28;20036;-69
2022/12/03 00:24:03;;;;;;;23.02;12.60;;;;;;;;;;5070951;28;20048;-69
2022/12/03 00:26:29;;;;;;;24.48;11.65;;;;;;;;;;5067127;28;20040;-69
2022/12/03 00:28:56;;;;;;;23.83;11.82;;;;;;;;;;5067809;28;20211;-69
2022/12/03 00:31:23;;;;;;;25.98;12.20;;;;;;;;;;5050552;28;20438;-69
2022/12/03 00:33:49;;;;;;;23.20;11.68;;;;;;;;;;5064873;28;20207;-69
2022/12/03 00:36:16;;;;;;;21.52;12.13;;;;;;;;;;5048469;28;20045;-69
2022/12/03 00:38:42;;;;;;;20.33;10.85;;;;;;;;;;5071790;28;20052;-70
2022/12/03 00:41:08;;;;;;;21.67;11.30;;;;;;;;;;5067233;28;20047;-69
2022/12/03 00:43:34;;;;;;;22.25;11.55;;;;;;;;;;5073429;28;20322;-68
2022/12/03 00:46:00;;;;;;;17.90;10.55;;;;;;;;;;5066329;28;20033;-69
2022/12/03 00:48:26;;;;;;;23.60;11.68;;;;;;;;;;5070399;28;20072;-69
2022/12/03 00:50:52;;;;;;;19.08;10.40;;;;;;;;;;5068089;28;20105;-69
2022/12/03 00:53:19;;;;;;;19.05;11.05;;;;;;;;;;5069811;28;20436;-69
2022/12/03 00:55:45;;;;;;;18.75;10.10;;;;;;;;;;5050826;28;20041;-69
2022/12/03 00:58:11;;;;;;;17.77;10.30;;;;;;;;;;5072756;28;23207;-69
2022/12/03 01:00:37;;;;;;;17.65;9.45;;;;;;;;;;5073556;28;20123;-69
2022/12/03 01:03:03;;;;;;;22.85;10.90;;;;;;;;;;5072412;28;20047;-68
2022/12/03 01:05:30;;;;;;;20.38;11.35;;;;;;;;;;5036065;28;20498;-69
2022/12/03 01:07:56;;;;;;;22.50;10.63;;;;;;;;;;5066764;28;20040;-69
2022/12/03 01:10:22;;;;;;;17.80;10.32;;;;;;;;;;5048514;28;20138;-69
2022/12/03 01:12:48;;;;;;;21.48;10.55;;;;;;;;;;5050816;28;20491;-69
2022/12/03 01:15:14;;;;;;;20.08;10.30;;;;;;;;;;5035870;28;20087;-69
2022/12/03 01:17:40;;;;;;;19.92;10.52;;;;;;;;;;5047763;28;20056;-69
2022/12/03 01:20:07;;;;;;;19.52;10.32;;;;;;;;;;5064162;28;20041;-69
2022/12/03 01:22:34;;;;;;;18.55;10.18;;;;;;;;;;5050243;28;20053;-70
2022/12/03 01:25:00;;;;;;;21.55;11.18;;;;;;;;;;5044256;28;20117;-69
2022/12/03 01:27:26;;;;;;;19.55;10.73;;;;;;;;;;5068885;28;20044;-69
2022/12/03 01:29:52;;;;;;;20.75;10.32;;;;;;;;;;5066806;28;20051;-69
2022/12/03 01:32:18;;;;;;;24.35;11.13;;;;;;;;;;5047711;28;20135;-69
2022/12/03 01:34:46;;;;;;;18.63;10.68;;;;;;;;;;5059392;28;20107;-69
2022/12/03 01:37:13;;;;;;;19.35;10.30;;;;;;;;;;5045750;28;20063;-69
2022/12/03 01:39:40;;;;;;;20.73;9.93;;;;;;;;;;5051004;28;20040;-69
2022/12/03 01:42:07;;;;;;;18.52;11.05;;;;;;;;;;5047467;28;20055;-69
2022/12/03 01:44:34;;;;;;;16.20;10.10;;;;;;;;;;5064603;28;20052;-69
2022/12/03 01:47:02;;;;;;;18.42;10.23;;;;;;;;;;5048175;28;20047;-69
2022/12/03 01:49:31;;;;;;;19.52;10.98;;;;;;;;;;5068255;28;20032;-69
2022/12/03 01:51:57;;;;;;;19.27;10.27;;;;;;;;;;5044560;28;20493;-70
2022/12/03 01:54:26;;;;;;;18.83;10.43;;;;;;;;;;5043663;28;20056;-69
2022/12/03 01:56:52;;;;;;;18.67;10.50;;;;;;;;;;5066581;28;21727;-69
2022/12/03 01:59:20;;;;;;;21.00;11.25;;;;;;;;;;5030028;28;20062;-69
2022/12/03 02:01:47;;;;;;;19.58;10.75;;;;;;;;;;5064980;28;20040;-69
2022/12/03 02:04:14;;;;;;;22.40;11.52;;;;;;;;;;5063370;28;20040;-69
2022/12/03 02:06:41;;;;;;;18.67;10.13;;;;;;;;;;5062009;28;20048;-69
2022/12/03 02:09:09;;;;;;;19.90;10.88;;;;;;;;;;5062084;28;20132;-69
2022/12/03 02:11:36;;;;;;;20.65;10.98;;;;;;;;;;5064447;28;20041;-69
2022/12/03 02:14:05;;;;;;;19.83;10.90;;;;;;;;;;5044186;28;20042;-69
2022/12/03 02:16:32;;;;;;;19.15;11.77;;;;;;;;;;5066697;28;20067;-69
2022/12/03 02:18:58;;;;;;;22.75;11.10;;;;;;;;;;5065345;28;20066;-70
2022/12/03 02:21:33;;;;;;;21.08;11.23;;;;;;;;;;5066826;28;20153;-70
2022/12/03 02:24:00;;;;;;;18.88;9.60;;;;;;;;;;5053837;28;20370;-69
2022/12/03 02:26:26;;;;;;;18.17;10.02;;;;;;;;;;5063195;28;20097;-69
2022/12/03 02:28:53;;;;;;;18.85;10.30;;;;;;;;;;5071450;28;21161;-69
2022/12/03 02:31:19;;;;;;;26.77;10.98;;;;;;;;;;5073522;28;20041;-70
2022/12/03 02:33:45;;;;;;;21.52;11.10;;;;;;;;;;5053794;28;20040;-69
2022/12/03 02:36:11;;;;;;;18.67;10.90;;;;;;;;;;5070337;28;20411;-69
2022/12/03 02:38:38;;;;;;;19.10;10.73;;;;;;;;;;5052464;28;20040;-69
2022/12/03 02:41:06;;;;;;;21.08;11.70;;;;;;;;;;5067403;28;20062;-69
2022/12/03 02:43:32;;;;;;;22.77;11.50;;;;;;;;;;5071714;28;20036;-69
2022/12/03 02:46:00;;;;;;;20.65;11.40;;;;;;;;;;5049653;28;20048;-70
2022/12/03 02:48:29;;;;;;;18.35;10.82;;;;;;;;;;5070934;28;20048;-69
2022/12/03 02:50:57;;;;;;;26.15;11.13;;;;;;;;;;5053904;28;20050;-69
2022/12/03 02:53:26;;;;;;;23.20;12.18;;;;;;;;;;5051005;28;20047;-70
2022/12/03 02:55:52;;;;;;;21.48;11.95;;;;;;;;;;5052352;28;20057;-69
2022/12/03 02:58:18;;;;;;;19.73;11.52;;;;;;;;;;5068713;28;20084;-69
2022/12/03 03:00:45;;;;;;;19.35;11.40;;;;;;;;;;5041555;28;20075;-69
2022/12/03 03:03:11;;;;;;;19.08;11.57;;;;;;;;;;5051570;28;20060;-70
2022/12/03 03:05:39;;;;;;;26.15;12.15;;;;;;;;;;5069142;28;20048;-70
2022/12/03 03:08:06;;;;;;;22.67;12.52;;;;;;;;;;5069681;28;20090;-70
2022/12/03 03:10:33;;;;;;;21.30;12.57;;;;;;;;;;5048858;28;20072;-69
2022/12/03 03:13:00;;;;;;;19.88;11.05;;;;;;;;;;5055835;28;20408;-70
2022/12/03 03:15:26;;;;;;;24.83;11.77;;;;;;;;;;5070792;28;21041;-69
2022/12/03 03:17:52;;;;;;;23.63;12.43;;;;;;;;;;5071715;28;20415;-69
2022/12/03 03:20:19;;;;;;;22.13;12.23;;;;;;;;;;5072095;28;20044;-69
2022/12/03 03:22:45;;;;;;;25.08;12.10;;;;;;;;;;5068606;28;20043;-69
2022/12/03 03:25:14;;;;;;;22.20;11.80;;;;;;;;;;5069565;28;20048;-69
2022/12/03 03:27:41;;;;;;;21.00;10.48;;;;;;;;;;5065816;28;20063;-69
2022/12/03 03:30:07;;;;;;;23.40;12.13;;;;;;;;;;5072282;28;20040;-69
2022/12/03 03:32:34;;;;;;;22.98;11.82;;;;;;;;;;5068995;28;20096;-69
2022/12/03 03:35:00;;;;;;;20.85;11.43;;;;;;;;;;5069727;28;20415;-70
2022/12/03 03:37:27;;;;;;;24.08;12.88;;;;;;;;;;5067981;28;20457;-69
2022/12/03 03:39:53;;;;;;;22.38;13.10;;;;;;;;;;5071672;28;20144;-69
2022/12/03 03:42:19;;;;;;;24.38;12.05;;;;;;;;;;5072394;28;20357;-69
2022/12/03 03:44:46;;;;;;;22.20;12.38;;;;;;;;;;5045257;28;20059;-70
2022/12/03 03:47:13;;;;;;;21.38;10.82;;;;;;;;;;5068168;28;20048;-69
2022/12/03 03:49:39;;;;;;;22.33;11.80;;;;;;;;;;5046499;28;20041;-69
2022/12/03 03:52:08;;;;;;;21.30;11.50;;;;;;;;;;5050158;28;20052;-69
2022/12/03 03:54:35;;;;;;;20.95;11.20;;;;;;;;;;5046578;28;20052;-69
2022/12/03 03:57:01;;;;;;;24.85;11.77;;;;;;;;;;5064452;28;20411;-69
2022/12/03 03:59:28;;;;;;;22.90;12.07;;;;;;;;;;5066238;28;20040;-69
2022/12/03 04:01:54;;;;;;;23.73;12.55;;;;;;;;;;5049260;28;20040;-69
2022/12/03 04:04:22;;;;;;;20.58;12.02;;;;;;;;;;5066062;28;20044;-69
2022/12/03 04:06:48;;;;;;;21.70;11.40;;;;;;;;;;5062832;28;20133;-69
2022/12/03 04:09:14;;;;;;;22.70;11.38;;;;;;;;;;5048184;28;20048;-69
2022/12/03 04:14:28;;;;;;;21.77;12.25;;;;;;;;;;5066564;28;20438;-69
2022/12/03 04:16:54;;;;;;;22.67;12.43;;;;;;;;;;5063607;28;21572;-69
2022/12/03 04:19:20;;;;;;;22.77;12.15;;;;;;;;;;5047418;28;20487;-69
2022/12/03 04:24:31;;;;;;;22.77;12.65;;;;;;;;;;5072014;28;20048;-70
2022/12/03 04:29:42;;;;;;;23.33;13.48;;;;;;;;;;5048722;28;20574;-69
2022/12/03 04:37:37;;;;;;;25.48;13.70;;;;;;;;;;5051707;28;21599;-69
2022/12/03 04:40:59;;;;;;;25.63;13.50;;;;;;;;;;5069369;28;20480;-69
2022/12/03 04:42:50;;;;;;;23.33;13.25;;;;;;;;;;5068686;28;20059;-69
2022/12/03 04:45:16;;;;;;;24.35;13.98;;;;;;;;;;5069203;28;20055;-69
2022/12/03 04:47:42;;;;;;;22.70;13.52;;;;;;;;;;5050772;28;20043;-69
2022/12/03 04:50:08;;;;;;;26.73;14.07;;;;;;;;;;5068962;28;20127;-69
2022/12/03 04:52:34;;;;;;;27.63;13.02;;;;;;;;;;5056956;28;20562;-69
2022/12/03 04:55:00;;;;;;;24.75;14.18;;;;;;;;;;5068851;28;20125;-68
2022/12/03 04:57:27;;;;;;;27.48;14.60;;;;;;;;;;5053186;28;20116;-68
2022/12/03 04:59:53;;;;;;;22.20;14.07;;;;;;;;;;5069675;28;20058;-69
2022/12/03 05:02:19;;;;;;;26.17;13.95;;;;;;;;;;5070938;28;20128;-69
2022/12/03 05:04:45;;;;;;;26.17;14.40;;;;;;;;;;5054013;28;20055;-69
2022/12/03 05:07:11;;;;;;;24.35;14.60;;;;;;;;;;5047018;28;20044;-68
2022/12/03 05:09:37;;;;;;;28.63;15.55;;;;;;;;;;5048654;28;20057;-69
2022/12/03 05:12:03;;;;;;;30.40;15.32;;;;;;;;;;5048872;28;20048;-68
2022/12/03 05:14:29;;;;;;;23.52;13.73;;;;;;;;;;5068064;28;20079;-68
2022/12/03 05:16:56;;;;;;;27.17;15.18;;;;;;;;;;5068231;28;20043;-68
2022/12/03 05:20:40;;;;;;;25.60;14.18;;;;;;;;;;5070816;28;20052;-68
2022/12/03 05:22:08;;;;;;;22.13;13.40;;;;;;;;;;5063845;28;20039;-69
2022/12/03 05:24:34;;;;;;;26.02;14.82;;;;;;;;;;5069853;28;20104;-68
2022/12/03 05:27:00;;;;;;;24.50;14.45;;;;;;;;;;5067937;28;20063;-68
2022/12/03 05:29:26;;;;;;;27.05;14.45;;;;;;;;;;5066408;28;20381;-69
2022/12/03 05:31:52;;;;;;;30.30;15.23;;;;;;;;;;5065756;28;20048;-68
2022/12/03 05:34:18;;;;;;;27.85;14.75;;;;;;;;;;5064788;28;20171;-68
2022/12/03 05:36:44;;;;;;;25.77;14.43;;;;;;;;;;5076152;28;20490;-69
2022/12/03 05:39:11;;;;;;;26.23;14.15;;;;;;;;;;5073359;28;20076;-69
2022/12/03 05:44:22;;;;;;;25.88;14.57;;;;;;;;;;5053615;28;20472;-69
2022/12/03 05:46:48;;;;;;;28.67;14.32;;;;;;;;;;5054546;28;20048;-69
2022/12/03 05:49:14;;;;;;;28.92;15.85;;;;;;;;;;5073071;28;20455;-69
2022/12/03 05:51:41;;;;;;;29.98;15.18;;;;;;;;;;5052371;28;20036;-69
2022/12/03 05:54:08;;;;;;;29.50;14.20;;;;;;;;;;5071108;28;20032;-69
2022/12/03 05:56:34;;;;;;;27.58;14.20;;;;;;;;;;5078247;28;20098;-69
2022/12/03 05:59:00;;;;;;;31.95;15.90;;;;;;;;;;5056312;28;20052;-69
2022/12/03 06:01:26;;;;;;;27.67;13.35;;;;;;;;;;5077568;28;20064;-69
2022/12/03 06:03:52;;;;;;;26.58;14.73;;;;;;;;;;5077640;28;20040;-69
2022/12/03 06:06:18;;;;;;;23.45;12.95;;;;;;;;;;5077712;28;20054;-69
2022/12/03 06:08:45;;;;;;;26.33;14.15;;;;;;;;;;5076544;28;20040;-69
2022/12/03 06:11:11;;;;;;;26.25;13.05;;;;;;;;;;5058999;28;20052;-69
2022/12/03 06:13:37;;;;;;;25.02;13.10;;;;;;;;;;5074177;28;20040;-70
2022/12/03 06:16:03;;;;;;;26.02;13.10;;;;;;;;;;5072657;28;20809;-69
2022/12/03 06:18:29;;;;;;;26.65;12.80;;;;;;;;;;5056393;28;20359;-69
2022/12/03 06:20:56;;;;;;;24.08;13.10;;;;;;;;;;5071240;28;20128;-69
2022/12/03 06:23:22;;;;;;;24.90;12.98;;;;;;;;;;5080360;28;20075;-69
2022/12/03 06:25:48;;;;;;;24.05;13.85;;;;;;;;;;5073083;28;20044;-69
2022/12/03 06:28:14;;;;;;;25.77;12.98;;;;;;;;;;5074789;28;20144;-69
2022/12/03 06:30:40;;;;;;;23.52;13.57;;;;;;;;;;5057317;28;20086;-69
2022/12/03 06:33:06;;;;;;;25.02;13.45;;;;;;;;;;5076354;28;20087;-68
2022/12/03 06:35:32;;;;;;;24.70;13.13;;;;;;;;;;5080831;28;20043;-69
2022/12/03 06:37:58;;;;;;;22.98;12.68;;;;;;;;;;5076964;28;20041;-68
2022/12/03 06:40:25;;;;;;;26.05;13.93;;;;;;;;;;5073357;28;20127;-69
2022/12/03 06:42:51;;;;;;;23.60;11.48;;;;;;;;;;5072342;28;20037;-69
2022/12/03 06:45:17;;;;;;;24.90;12.82;;;;;;;;;;5056126;28;20056;-69
2022/12/03 06:47:43;;;;;;;25.33;12.63;;;;;;;;;;5053399;28;20496;-69
2022/12/03 06:50:10;;;;;;;24.35;13.93;;;;;;;;;;5073688;28;20397;-69
2022/12/03 06:52:36;;;;;;;25.10;13.52;;;;;;;;;;5058975;28;20044;-69
2022/12/03 06:55:02;;;;;;;24.67;13.38;;;;;;;;;;5075550;28;20067;-69
2022/12/03 06:57:28;;;;;;;25.73;12.93;;;;;;;;;;5070486;28;20046;-69
2022/12/03 06:59:54;;;;;;;22.70;12.45;;;;;;;;;;5058494;28;20063;-69
2022/12/03 07:02:20;;;;;;;23.25;13.45;;;;;;;;;;5076210;28;20196;-69
2022/12/03 07:04:47;;;;;;;26.85;13.35;;;;;;;;;;5071411;28;20421;-69
2022/12/03 07:07:13;;;;;;;24.50;12.77;;;;;;;;;;5081271;28;20127;-69
2022/12/03 07:09:39;;;;;;;24.88;13.18;;;;;;;;;;5077651;28;20040;-69
2022/12/03 07:12:05;;;;;;;25.60;12.48;;;;;;;;;;5077511;28;20511;-69
2022/12/03 07:14:32;;;;;;;25.55;14.68;;;;;;;;;;5074651;28;20075;-69
2022/12/03 07:16:58;;;;;;;26.20;13.95;;;;;;;;;;5072285;28;20084;-69
2022/12/03 07:19:24;;;;;;;24.60;12.60;;;;;;;;;;5057975;28;20045;-69
2022/12/03 07:21:50;;;;;;;23.33;13.57;;;;;;;;;;5076710;28;20032;-69
2022/12/03 07:24:16;;;;;;;21.48;11.95;;;;;;;;;;5058848;28;20135;-69
2022/12/03 07:26:42;;;;;;;24.73;13.88;;;;;;;;;;5077594;28;20055;-69
2022/12/03 07:29:08;;;;;;;21.63;11.73;;;;;;;;;;5077563;28;20036;-69
2022/12/03 07:31:35;;;;;;;23.52;12.25;;;;;;;;;;5075401;28;20163;-69
2022/12/03 07:34:01;;;;;;;24.80;12.10;;;;;;;;;;5077445;28;20032;-69
2022/12/03 07:36:27;;;;;;;25.25;13.90;;;;;;;;;;5079043;28;20050;-69
2022/12/03 07:38:54;;;;;;;26.77;12.70;;;;;;;;;;5074976;28;20032;-69
2022/12/03 07:41:20;;;;;;;24.92;13.27;;;;;;;;;;5078761;28;20406;-69
2022/12/03 07:43:46;;;;;;;24.05;13.02;;;;;;;;;;5082144;28;20126;-69
2022/12/03 07:46:12;;;;;;;23.08;11.85;;;;;;;;;;5080000;28;20048;-69
2022/12/03 07:48:38;;;;;;;22.90;12.52;;;;;;;;;;5077120;28;20048;-69
2022/12/03 07:51:04;;;;;;;24.70;12.40;;;;;;;;;;5076998;28;20042;-69
2022/12/03 07:53:31;;;;;;;23.73;12.02;;;;;;;;;;5065090;28;20114;-69
2022/12/03 07:55:57;;;;;;;32.33;12.80;;;;;;;;;;5058403;28;20040;-69
2022/12/03 07:58:23;;;;;;;23.80;12.38;;;;;;;;;;5072229;28;20412;-69
2022/12/03 08:00:49;;;;;;;25.83;13.45;;;;;;;;;;5059116;28;20029;-69
2022/12/03 08:03:15;;;;;;;28.83;12.70;;;;;;;;;;5074100;28;20243;-69
2022/12/03 08:05:41;;;;;;;27.15;13.90;;;;;;;;;;5078540;28;20051;-69
2022/12/03 08:08:07;;;;;;;24.63;13.77;;;;;;;;;;5076269;28;20044;-70
2022/12/03 08:10:34;;;;;;;22.83;12.13;;;;;;;;;;5057846;28;20040;-69
2022/12/03 08:13:00;;;;;;;25.80;12.52;;;;;;;;;;5074408;28;20076;-69
2022/12/03 08:15:28;;;;;;;26.23;12.77;;;;;;;;;;5079111;28;20695;-69
2022/12/03 08:17:57;;;;;;;25.00;12.93;;;;;;;;;;5074806;28;21006;-69
2022/12/03 08:20:24;;;;;;;23.15;12.63;;;;;;;;;;5077089;28;20040;-69
2022/12/03 08:22:51;;;;;;;22.48;11.98;;;;;;;;;;5077526;28;20046;-69
2022/12/03 08:25:26;;;;;;;26.45;13.57;;;;;;;;;;5075766;28;20442;-69
2022/12/03 08:27:55;;;;;;;27.58;13.50;;;;;;;;;;5071097;28;20380;-69
2022/12/03 08:30:21;;;;;;;27.23;13.35;;;;;;;;;;5051679;28;20051;-69
2022/12/03 08:32:47;;;;;;;24.85;13.60;;;;;;;;;;5075769;28;20036;-69
2022/12/03 08:35:19;;;;;;;24.83;12.68;;;;;;;;;;5077022;28;20400;-69
2022/12/03 08:37:45;;;;;;;25.90;12.77;;;;;;;;;;5076205;28;20060;-69
2022/12/03 08:40:33;;;;;;;26.20;12.55;;;;;;;;;;5075656;28;20527;-68
2022/12/03 08:42:59;;;;;;;27.30;12.93;;;;;;;;;;5055796;28;20048;-69
2022/12/03 08:45:31;;;;;;;27.35;13.93;;;;;;;;;;5079490;28;20408;-67
2022/12/03 08:47:57;;;;;;;25.00;13.00;;;;;;;;;;5054244;28;20056;-68
2022/12/03 08:50:26;;;;;;;24.70;12.13;;;;;;;;;;5056706;28;20123;-68
2022/12/03 08:52:54;;;;;;;25.60;12.52;;;;;;;;;;5056265;28;20510;-68
2022/12/03 08:55:34;;;;;;;24.73;13.48;;;;;;;;;;5076657;28;20149;-69
2022/12/03 08:58:05;;;;;;;23.30;13.63;;;;;;;;;;5071306;28;20131;-69
2022/12/03 09:00:31;;;;;;;22.42;12.70;;;;;;;;;;5078904;28;20045;-69
2022/12/03 09:02:59;;;;;;;26.13;14.07;;;;;;;;;;5073486;28;20104;-69
2022/12/03 09:05:27;;;;;;;25.45;12.63;;;;;;;;;;5078118;28;20063;-68
2022/12/03 09:07:53;;;;;;;25.02;13.50;;;;;;;;;;5072384;28;20754;-69
2022/12/03 09:10:20;;;;;;;23.13;12.82;;;;;;;;;;5055553;28;20041;-69
2022/12/03 09:12:46;;;;;;;26.58;14.27;;;;;;;;;;5076094;28;20044;-69
2022/12/03 09:15:12;;;;;;;26.05;12.88;;;;;;;;;;5075601;28;20761;-68
2022/12/03 09:17:38;;;;;;;25.20;13.95;;;;;;;;;;5074313;28;20440;-69
2022/12/03 09:20:05;;;;;;;25.77;13.27;;;;;;;;;;5073722;28;20039;-69
2022/12/03 09:22:32;;;;;;;25.75;12.65;;;;;;;;;;5057600;28;20051;-69
2022/12/03 09:24:58;;;;;;;26.67;14.15;;;;;;;;;;5078540;28;20405;-69
2022/12/03 09:27:24;;;;;;;25.80;12.93;;;;;;;;;;5083035;28;20044;-70
2022/12/03 09:29:50;;;;;;;23.90;13.25;;;;;;;;;;5059585;28;20047;-69
2022/12/03 09:32:16;;;;;;;22.58;12.75;;;;;;;;;;5078858;28;20414;-70
2022/12/03 09:34:42;;;;;;;27.95;13.60;;;;;;;;;;5077581;28;20047;-70
2022/12/03 09:37:09;;;;;;;27.80;14.15;;;;;;;;;;5074063;28;20143;-70
2022/12/03 09:39:35;;;;;;;27.05;14.25;;;;;;;;;;5065110;28;20676;-69
2022/12/03 09:42:02;;;;;;;26.80;13.18;;;;;;;;;;5082146;28;20036;-68
2022/12/03 09:44:29;;;;;;;23.33;12.25;;;;;;;;;;5054580;28;20547;-67
2022/12/03 09:46:58;;;;;;;25.08;13.27;;;;;;;;;;5077041;28;20412;-67
2022/12/03 09:49:26;;;;;;;28.48;14.35;;;;;;;;;;5070977;28;20120;-67
2022/12/03 09:51:53;;;;;;;25.65;13.07;;;;;;;;;;5083050;28;20681;-67
2022/12/03 09:54:22;;;;;;;24.23;12.57;;;;;;;;;;5080245;28;20052;-67
2022/12/03 09:56:49;;;;;;;27.33;13.32;;;;;;;;;;5074380;28;20049;-67
2022/12/03 09:59:15;;;;;;;27.73;14.20;;;;;;;;;;5079800;28;20076;-68
2022/12/03 10:01:41;;;;;;;28.83;14.02;;;;;;;;;;5060139;28;20052;-68
2022/12/03 10:04:08;;;;;;;27.70;13.88;;;;;;;;;;5057132;28;20040;-68
2022/12/03 10:06:34;;;;;;;28.73;14.13;;;;;;;;;;5057797;28;20044;-67
2022/12/03 10:09:00;;;;;;;28.95;15.80;;;;;;;;;;5055307;28;20505;-68
2022/12/03 10:11:26;;;;;;;33.25;14.13;;;;;;;;;;5059909;28;20620;-67
2022/12/03 10:13:53;;;;;;;28.95;14.32;;;;;;;;;;5039825;28;20044;-67
2022/12/03 10:16:20;;;;;;;24.15;13.68;;;;;;;;;;5074831;28;20101;-67
2022/12/03 10:18:49;;;;;;;24.63;13.55;;;;;;;;;;5080689;28;20444;-67
2022/12/03 10:21:18;;;;;;;31.73;14.90;;;;;;;;;;5057694;28;20053;-67
2022/12/03 10:23:45;;;;;;;32.47;14.88;;;;;;;;;;5078692;28;20044;-68
2022/12/03 10:26:12;;;;;;;27.73;13.95;;;;;;;;;;5078590;28;20052;-68
2022/12/03 10:28:40;;;;;;;31.08;15.20;;;;;;;;;;5056570;28;20124;-68
2022/12/03 10:31:08;;;;;;;32.67;16.25;;;;;;;;;;5077289;28;20364;-68
2022/12/03 10:33:36;;;;;;;27.88;14.98;;;;;;;;;;5054280;28;20043;-68
2022/12/03 10:36:22;;;;;;;29.48;14.43;;;;;;;;;;5076446;28;20128;-67
2022/12/03 10:39:05;;;;;;;27.73;14.07;;;;;;;;;;5053151;28;20365;-68
2022/12/03 10:41:31;;;;;;;27.65;14.65;;;;;;;;;;5077390;28;20409;-68
2022/12/03 10:44:16;;;;;;;28.55;12.90;;;;;;;;;;5082963;28;20554;-68
2022/12/03 10:46:42;;;;;;;28.70;14.40;;;;;;;;;;5057411;28;20040;-68
2022/12/03 10:49:10;;;;;;;29.27;15.23;;;;;;;;;;5080100;28;20052;-67
2022/12/03 10:51:36;;;;;;;27.20;12.93;;;;;;;;;;5078213;28;20123;-68
2022/12/03 10:54:03;;;;;;;26.98;13.32;;;;;;;;;;5079405;28;20169;-68
2022/12/03 10:56:29;;;;;;;27.73;15.15;;;;;;;;;;5078328;28;20472;-67
2022/12/03 10:58:55;;;;;;;28.63;14.85;;;;;;;;;;5058940;28;20083;-67
2022/12/03 11:01:22;;;;;;;27.90;13.80;;;;;;;;;;5081664;28;20044;-67
2022/12/03 11:03:49;;;;;;;28.80;14.23;;;;;;;;;;5077768;28;20055;-67
2022/12/03 11:06:17;;;;;;;31.20;14.02;;;;;;;;;;5080412;28;20247;-66
2022/12/03 11:08:44;;;;;;;28.90;14.63;;;;;;;;;;5076258;28;20148;-66
2022/12/03 11:11:18;;;;;;;31.25;15.45;;;;;;;;;;5077267;28;20055;-68
2022/12/03 11:13:45;;;;;;;30.20;15.23;;;;;;;;;;5072433;28;20047;-67
2022/12/03 11:16:12;;;;;;;28.58;15.30;;;;;;;;;;5075568;28;20125;-67
2022/12/03 11:18:38;;;;;;;29.88;14.27;;;;;;;;;;5072758;28;20051;-67
2022/12/03 11:21:05;;;;;;;29.08;13.77;;;;;;;;;;5054118;28;20552;-68
2022/12/03 11:23:56;;;;;;;26.88;14.40;;;;;;;;;;5075240;28;20529;-68
2022/12/03 11:26:43;;;;;;;25.15;13.55;;;;;;;;;;5056272;28;20051;-68
2022/12/03 11:29:15;;;;;;;31.15;15.70;;;;;;;;;;5074615;28;20127;-68
2022/12/03 11:31:45;;;;;;;23.92;13.30;;;;;;;;;;5058601;28;20403;-67
2022/12/03 11:34:14;;;;;;;25.50;13.82;;;;;;;;;;5053218;28;20048;-67
2022/12/03 11:36:59;;;;;;;27.83;14.07;;;;;;;;;;5054449;28;20048;-67
2022/12/03 11:39:44;;;;;;;26.80;14.38;;;;;;;;;;5055800;28;20052;-68
2022/12/03 11:42:29;;;;;;;28.35;14.70;;;;;;;;;;5051121;28;20106;-68
2022/12/03 11:44:55;;;;;;;;;;;;;;;;;;5070977;28;20123;-67
2022/12/03 11:47:21;;;;;;;;;;;;;;;;;;5071265;28;20423;-68
2022/12/03 11:49:47;;;;;;;;;;;;;;;;;;5055460;28;19993;-68
2022/12/03 11:52:13;;;;;;;;;;;;;;;;;;5071308;28;20549;-68
2022/12/03 11:54:39;;;;;;;;;;;;;;;;;;5055941;28;19984;-68
2022/12/03 11:57:05;;;;;;;;;;;;;;;;;;5075287;28;19920;-68
2022/12/03 11:59:31;;;;;;;;;;;;;;;;;;5070844;28;21925;-68
2022/12/03 12:01:57;;;;;;;;;;;;;;;;;;5053314;28;19939;-69
2022/12/03 12:04:23;;;;;;;;;;;;;;;;;;5075626;28;19916;-69
2022/12/03 12:06:49;;;;;;;;;;;;;;;;;;5042294;28;19936;-67
2022/12/03 12:09:15;;;;;;;;;;;;;;;;;;5074766;28;19927;-66
2022/12/03 12:11:42;;;;;;;;;;;;;;;;;;5073143;28;19920;-67
2022/12/03 12:14:08;;;;;;;;;;;;;;;;;;5073275;28;20008;-66
2022/12/03 12:16:34;;;;;;;;;;;;;;;;;;5060383;28;19935;-67
2022/12/03 12:19:00;;;;;;;;;;;;;;;;;;5055782;28;19924;-67
2022/12/03 12:21:26;;;;;;;;;;;;;;;;;;5071110;28;19927;-67
2022/12/03 12:23:52;;;;;;;;;;;;;;;;;;5054786;28;20367;-67
2022/12/03 12:26:18;;;;;;;;;;;;;;;;;;5070487;28;19920;-67
2022/12/03 12:28:44;;;;;;;;;;;;;;;;;;5072168;28;19932;-67
2022/12/03 12:31:10;;;;;;;;;;;;;;;;;;5073243;28;19920;-67
2022/12/03 12:33:36;;;;;;;;;;;;;;;;;;5053068;28;19921;-67
2022/12/03 12:36:02;;;;;;;;;;;;;;;;;;5072996;28;19916;-67
2022/12/03 12:38:28;;;;;;;;;;;;;;;;;;5074559;28;19927;-68
2022/12/03 12:40:54;;;;;;;;;;;;;;;;;;5081340;28;20007;-81
2022/12/03 12:43:22;;;;;;;;;;;;;;;;;;5055168;28;19936;-86
2022/12/03 12:45:48;;;;;;;;;;;;;;;;;;5053968;28;19920;-67
2022/12/03 12:48:14;;;;;;;;;;;;;;;;;;5072018;28;19946;-67
2022/12/03 12:50:40;;;;;;;;;;;;;;;;;;5073425;28;19924;-85
2022/12/03 12:53:06;;;;;;;;;;;;;;;;;;5034237;28;19928;-67
2022/12/03 12:55:32;;;;;;;;;;;;;;;;;;5066261;28;20508;-67
2022/12/03 12:57:58;;;;;;;;;;;;;;;;;;5070514;28;19928;-67
2022/12/03 13:00:24;;;;;;;;;;;;;;;;;;5070529;28;19920;-67
2022/12/03 13:02:50;;;;;;;;;;;;;;;;;;5074180;28;19923;-67
2022/12/03 13:05:16;;;;;;;;;;;;;;;;;;5071912;28;20037;-67
2022/12/03 13:07:42;;;;;;;;;;;;;;;;;;5071223;28;20007;-67
2022/12/03 13:10:08;;;;;;;;;;;;;;;;;;5081616;28;19924;-67
2022/12/03 13:12:34;;;;;;;;;;;;;;;;;;5072524;28;19930;-80
2022/12/03 13:15:00;;;;;;;;;;;;;;;;;;5054487;28;19920;-67
2022/12/03 13:17:26;;;;;;;;;;;;;;;;;;5069443;28;19928;-66
2022/12/03 13:19:53;;;;;;;;;;;;;;;;;;5076616;28;19924;-66
2022/12/03 13:22:19;;;;;;;;;;;;;;;;;;5071676;28;19947;-66
2022/12/03 13:24:46;;;;;;;;;;;;;;;;;;5051116;28;19925;-67
2022/12/03 13:27:12;;;;;;;;;;;;;;;;;;5055174;28;19955;-66
2022/12/03 13:29:38;;;;;;;;;;;;;;;;;;5075843;28;19920;-66
2022/12/03 13:32:04;;;;;;;;;;;;;;;;;;5080002;28;20065;-66
2022/12/03 13:34:30;;;;;;;;;;;;;;;;;;5074428;28;19924;-67
2022/12/03 13:36:56;;;;;;;;;;;;;;;;;;5070647;28;19927;-67
2022/12/03 13:39:22;;;;;;;;;;;;;;;;;;5078774;28;19924;-67
2022/12/03 13:44:20;;;;;;;;;;;;;;;;;;5057659;28;21727;-66
2022/12/03 13:46:46;;;;;;;;;;;;;;;;;;5073480;28;19927;-66
2022/12/03 13:49:12;;;;;;;;;;;;;;;;;;5055814;28;20391;-66
2022/12/03 13:51:39;;;;;;;;;;;;;;;;;;5058237;28;20043;-67
2022/12/03 13:54:05;;;;;;;;;;;;;;;;;;5075436;28;19920;-66
2022/12/03 13:56:31;;;;;;;;;;;;;;;;;;5072098;28;20039;-66
2022/12/03 13:58:58;;;;;;;;;;;;;;;;;;5057106;28;20407;-67
2022/12/03 14:01:24;;;;;;;;;;;;;;;;;;5075384;28;20306;-67
2022/12/03 14:03:50;;;;;;;;;;;;;;;;;;5075382;28;19924;-67
2022/12/03 14:06:16;;;;;;;;;;;;;;;;;;5055603;28;19988;-67
2022/12/03 14:08:42;;;;;;;;;;;;;;;;;;5056342;28;19919;-67
2022/12/03 14:12:24;;;;;;;;;;;;;;;;;;5053311;28;20379;-67
2022/12/03 14:13:54;;;;;;;;;;;;;;;;;;5061740;28;19935;-68
2022/12/03 14:16:20;;;;;;;;;;;;;;;;;;5069781;28;19916;-67
2022/12/03 14:18:46;;;;;;;;;;;;;;;;;;5079517;28;19997;-66
2022/12/03 14:21:12;;;;;;;;;;;;;;;;;;5077144;28;20003;-66
2022/12/03 14:23:38;;;;;;;;;;;;;;;;;;5075037;28;20429;-67
2022/12/03 14:26:04;;;;;;;;;;;;;;;;;;5075164;28;19920;-67
2022/12/03 14:28:30;;;;;;;;;;;;;;;;;;5075276;28;19920;-67
2022/12/03 14:30:56;;;;;;;;;;;;;;;;;;5073971;28;20389;-67
2022/12/03 14:33:22;;;;;;;;;;;;;;;;;;5075028;28;20351;-66
2022/12/03 14:35:52;;;;;;;;;;;;;;;;;;5058955;28;19924;-67
2022/12/03 14:38:18;;;;;;;;;;;;;;;;;;5078303;28;19965;-67
2022/12/03 14:40:44;;;;;;;;;;;;;;;;;;5079177;28;19950;-67
2022/12/03 14:43:10;;;;;;;;;;;;;;;;;;5058574;28;19924;-66
2022/12/03 14:45:36;;;;;;;;;;;;;;;;;;5052474;28;19994;-67
2022/12/03 14:48:02;;;;;;;;;;;;;;;;;;5054395;28;20579;-67
2022/12/03 14:50:28;;;;;;;;;;;;;;;;;;5075566;28;20017;-70
2022/12/03 14:52:54;;;;;;;;;;;;;;;;;;5038299;28;19959;-79
2022/12/03 14:55:20;;;;;;;;;;;;;;;;;;5058943;28;19939;-78
2022/12/03 14:57:46;;;;;;;;;;;;;;;;;;5056051;28;19927;-84
2022/12/03 15:00:12;;;;;;;;;;;;;;;;;;5053428;28;19929;-86
2022/12/03 15:02:38;;;;;;;;;;;;;;;;;;5073571;28;19986;-68
2022/12/03 15:05:04;;;;;;;;;;;;;;;;;;5069759;28;20289;-69
2022/12/03 15:07:30;;;;;;;;;;;;;;;;;;5070674;28;19928;-69